createdAt,value
2023-06-11T00:00:08.644Z,17.11
2023-06-11T00:01:08.607Z,17.09
2023-06-11T00:02:08.607Z,17.11
2023-06-11T00:03:08.791Z,17.14
2023-06-11T00:04:08.693Z,17.04
2023-06-11T00:05:08.828Z,17.02
2023-06-11T00:06:08.572Z,16.99
2023-06-11T00:07:08.559Z,16.89
2023-06-11T00:08:09.557Z,16.81
2023-06-11T00:09:08.576Z,16.84
2023-06-11T00:10:08.593Z,16.90
2023-06-11T00:11:08.528Z,16.72
2023-06-11T00:12:08.558Z,16.64
2023-06-11T00:13:08.514Z,16.54
2023-06-11T00:14:08.543Z,16.58
2023-06-11T00:15:08.760Z,16.57
2023-06-11T00:16:08.509Z,16.54
2023-06-11T00:17:08.500Z,16.54
2023-06-11T00:18:08.574Z,16.43
2023-06-11T00:19:08.504Z,16.46
2023-06-11T00:20:08.466Z,16.49
2023-06-11T00:21:08.466Z,16.35
2023-06-11T00:22:08.445Z,16.36
2023-06-11T00:23:08.468Z,16.39
2023-06-11T00:24:08.504Z,16.35
2023-06-11T00:25:08.679Z,16.36
2023-06-11T00:26:08.441Z,16.38
2023-06-11T00:27:08.407Z,16.32
2023-06-11T00:28:08.432Z,16.24
2023-06-11T00:29:08.422Z,16.23
2023-06-11T00:30:08.391Z,16.16
2023-06-11T00:31:08.414Z,16.05
2023-06-11T00:32:08.458Z,15.95
2023-06-11T00:33:08.494Z,15.90
2023-06-11T00:34:08.368Z,15.88
2023-06-11T00:35:08.926Z,15.79
2023-06-11T00:36:08.345Z,15.86
2023-06-11T00:37:08.338Z,15.88
2023-06-11T00:38:08.335Z,15.79
2023-06-11T00:39:08.329Z,15.76
2023-06-11T00:40:08.309Z,15.83
2023-06-11T00:41:08.295Z,15.84
2023-06-11T00:42:08.306Z,15.73
2023-06-11T00:43:08.298Z,15.73
2023-06-11T00:44:08.264Z,15.76
2023-06-11T00:45:08.364Z,15.68
2023-06-11T00:46:08.333Z,15.73
2023-06-11T00:47:08.264Z,15.75
2023-06-11T00:48:08.307Z,15.79
2023-06-11T00:49:08.234Z,15.65
2023-06-11T00:50:08.223Z,15.61
2023-06-11T00:51:08.208Z,15.59
2023-06-11T00:52:08.229Z,15.61
2023-06-11T00:53:08.196Z,15.59
2023-06-11T00:54:08.179Z,15.58
2023-06-11T00:55:08.300Z,15.55
2023-06-11T00:56:08.187Z,15.55
2023-06-11T00:57:09.192Z,15.57
2023-06-11T00:58:08.200Z,15.52
2023-06-11T00:59:08.149Z,15.44
2023-06-11T01:00:08.163Z,15.31
2023-06-11T01:01:08.225Z,15.40
2023-06-11T01:02:08.136Z,15.40
2023-06-11T01:03:08.147Z,15.39
2023-06-11T01:04:08.217Z,15.33
2023-06-11T01:05:08.206Z,15.31
2023-06-11T01:06:08.130Z,15.28
2023-06-11T01:07:08.073Z,15.22
2023-06-11T01:08:08.072Z,15.21
2023-06-11T01:09:08.062Z,15.09
2023-06-11T01:10:08.060Z,15.15
2023-06-11T01:11:11.051Z,15.03
2023-06-11T01:12:09.036Z,15.03
2023-06-11T01:13:08.032Z,15.09
2023-06-11T01:14:08.036Z,14.99
2023-06-11T01:15:08.081Z,15.02
2023-06-11T01:16:08.031Z,14.86
2023-06-11T01:17:08.094Z,14.92
2023-06-11T01:18:08.081Z,14.84
2023-06-11T01:19:07.982Z,14.86
2023-06-11T01:20:08.006Z,14.86
2023-06-11T01:21:07.971Z,14.86
2023-06-11T01:22:07.959Z,14.86
2023-06-11T01:23:07.953Z,14.69
2023-06-11T01:24:07.997Z,14.86
2023-06-11T01:25:08.181Z,14.85
2023-06-11T01:26:07.920Z,14.77
2023-06-11T01:27:07.919Z,14.81
2023-06-11T01:28:07.921Z,14.79
2023-06-11T01:29:07.926Z,14.77
2023-06-11T01:30:07.928Z,14.78
2023-06-11T01:31:07.910Z,14.73
2023-06-11T01:32:07.893Z,14.78
2023-06-11T01:33:07.904Z,14.72
2023-06-11T01:34:07.891Z,14.72
2023-06-11T01:35:08.251Z,14.65
2023-06-11T01:36:07.850Z,14.72
2023-06-11T01:37:07.842Z,14.65
2023-06-11T01:38:07.830Z,14.60
2023-06-11T01:39:07.865Z,14.62
2023-06-11T01:40:07.825Z,14.68
2023-06-11T01:41:07.806Z,14.65
2023-06-11T01:42:07.804Z,14.65
2023-06-11T01:43:07.824Z,14.62
2023-06-11T01:44:07.817Z,14.65
2023-06-11T01:45:07.856Z,14.60
2023-06-11T01:46:07.820Z,14.58
2023-06-11T01:47:07.756Z,14.59
2023-06-11T01:48:07.815Z,14.59
2023-06-11T01:49:07.775Z,14.53
2023-06-11T01:50:07.808Z,14.53
2023-06-11T01:51:07.732Z,14.41
2023-06-11T01:52:07.721Z,14.44
2023-06-11T01:53:07.744Z,14.37
2023-06-11T01:54:07.726Z,14.36
2023-06-11T01:55:07.956Z,14.33
2023-06-11T01:56:07.691Z,14.36
2023-06-11T01:57:07.682Z,14.32
2023-06-11T01:58:07.710Z,14.35
2023-06-11T01:59:07.695Z,14.32
2023-06-11T02:00:07.659Z,14.30
2023-06-11T02:01:07.651Z,14.32
2023-06-11T02:02:07.697Z,14.28
2023-06-11T02:03:07.692Z,14.22
2023-06-11T02:04:07.786Z,14.22
2023-06-11T02:05:07.726Z,14.29
2023-06-11T02:06:07.617Z,14.26
2023-06-11T02:07:07.650Z,14.30
2023-06-11T02:08:08.605Z,14.20
2023-06-11T02:09:07.600Z,14.23
2023-06-11T02:10:07.583Z,14.23
2023-06-11T02:11:07.588Z,14.20
2023-06-11T02:12:07.610Z,14.18
2023-06-11T02:13:07.562Z,14.11
2023-06-11T02:14:07.560Z,14.12
2023-06-11T02:15:07.628Z,14.07
2023-06-11T02:16:07.555Z,14.08
2023-06-11T02:17:07.561Z,14.07
2023-06-11T02:18:07.624Z,14.03
2023-06-11T02:19:07.509Z,13.96
2023-06-11T02:20:07.542Z,13.96
2023-06-11T02:21:07.504Z,13.89
2023-06-11T02:22:07.523Z,13.93
2023-06-11T02:23:07.491Z,13.89
2023-06-11T02:24:07.505Z,13.97
2023-06-11T02:25:07.488Z,13.85
2023-06-11T02:26:07.473Z,13.93
2023-06-11T02:27:07.480Z,13.93
2023-06-11T02:28:07.473Z,13.89
2023-06-11T02:29:07.444Z,13.87
2023-06-11T02:30:07.443Z,13.77
2023-06-11T02:31:07.447Z,13.78
2023-06-11T02:32:07.541Z,13.90
2023-06-11T02:33:07.514Z,13.89
2023-06-11T02:34:07.407Z,13.77
2023-06-11T02:35:07.403Z,13.77
2023-06-11T02:36:07.405Z,13.81
2023-06-11T02:37:07.380Z,13.86
2023-06-11T02:38:07.393Z,13.86
2023-06-11T02:39:07.362Z,13.77
2023-06-11T02:40:07.373Z,13.81
2023-06-11T02:41:07.378Z,13.83
2023-06-11T02:42:07.334Z,13.90
2023-06-11T02:43:07.332Z,13.79
2023-06-11T02:44:07.323Z,13.78
2023-06-11T02:45:07.437Z,13.77
2023-06-11T02:46:07.419Z,13.72
2023-06-11T02:47:07.322Z,13.67
2023-06-11T02:48:07.364Z,13.72
2023-06-11T02:49:07.294Z,13.72
2023-06-11T02:50:07.280Z,13.72
2023-06-11T02:51:07.305Z,13.65
2023-06-11T02:52:07.267Z,13.72
2023-06-11T02:53:07.270Z,13.77
2023-06-11T02:54:07.237Z,13.65
2023-06-11T02:55:07.265Z,13.71
2023-06-11T02:56:07.255Z,13.65
2023-06-11T02:57:07.222Z,13.57
2023-06-11T02:58:07.217Z,13.70
2023-06-11T02:59:07.209Z,13.60
2023-06-11T03:00:07.251Z,13.63
2023-06-11T03:01:07.223Z,13.65
2023-06-11T03:02:07.189Z,13.65
2023-06-11T03:03:07.291Z,13.59
2023-06-11T03:04:07.273Z,13.63
2023-06-11T03:05:07.189Z,13.57
2023-06-11T03:06:07.159Z,13.54
2023-06-11T03:07:07.142Z,13.54
2023-06-11T03:08:07.137Z,13.47
2023-06-11T03:09:07.164Z,13.53
2023-06-11T03:10:07.156Z,13.56
2023-06-11T03:11:07.112Z,13.50
2023-06-11T03:12:07.100Z,13.53
2023-06-11T03:13:07.095Z,13.47
2023-06-11T03:14:07.110Z,13.50
2023-06-11T03:15:07.092Z,13.47
2023-06-11T03:16:07.106Z,13.49
2023-06-11T03:17:07.063Z,13.49
2023-06-11T03:18:07.122Z,13.52
2023-06-11T03:19:07.080Z,13.56
2023-06-11T03:20:07.047Z,13.38
2023-06-11T03:21:07.029Z,13.49
2023-06-11T03:22:07.021Z,13.57
2023-06-11T03:23:07.041Z,13.50
2023-06-11T03:24:07.063Z,13.42
2023-06-11T03:25:06.999Z,13.44
2023-06-11T03:26:06.991Z,13.46
2023-06-11T03:27:07.002Z,13.50
2023-06-11T03:28:07.000Z,13.54
2023-06-11T03:29:06.977Z,13.60
2023-06-11T03:30:06.966Z,13.72
2023-06-11T03:31:07.039Z,13.87
2023-06-11T03:32:06.943Z,13.85
2023-06-11T03:33:06.997Z,13.95
2023-06-11T03:34:06.928Z,14.15
2023-06-11T03:35:06.920Z,14.17
2023-06-11T03:36:06.910Z,14.36
2023-06-11T03:37:06.905Z,14.43
2023-06-11T03:38:06.921Z,14.55
2023-06-11T03:39:06.891Z,14.79
2023-06-11T03:40:06.892Z,14.85
2023-06-11T03:41:06.873Z,14.91
2023-06-11T03:42:06.898Z,15.10
2023-06-11T03:43:06.886Z,15.18
2023-06-11T03:44:06.874Z,15.43
2023-06-11T03:45:06.839Z,15.55
2023-06-11T03:46:06.834Z,15.76
2023-06-11T03:47:06.990Z,16.01
2023-06-11T03:48:06.847Z,16.21
2023-06-11T03:49:06.809Z,16.38
2023-06-11T03:50:06.799Z,16.58
2023-06-11T03:51:06.787Z,16.66
2023-06-11T03:52:06.813Z,16.83
2023-06-11T03:53:06.786Z,17.05
2023-06-11T03:54:06.769Z,17.12
2023-06-11T03:55:06.758Z,17.09
2023-06-11T03:56:06.775Z,17.05
2023-06-11T03:57:06.768Z,17.06
2023-06-11T03:58:06.727Z,17.24
2023-06-11T03:59:07.735Z,17.31
2023-06-11T04:00:06.716Z,17.36
2023-06-11T04:01:06.744Z,17.56
2023-06-11T04:02:06.718Z,17.83
2023-06-11T04:03:06.893Z,18.08
2023-06-11T04:04:06.748Z,18.31
2023-06-11T04:05:06.674Z,18.43
2023-06-11T04:06:07.698Z,18.71
2023-06-11T04:07:06.689Z,18.78
2023-06-11T04:08:06.674Z,18.90
2023-06-11T04:09:06.645Z,19.12
2023-06-11T04:10:06.663Z,19.21
2023-06-11T04:11:06.735Z,19.30
2023-06-11T04:12:06.619Z,19.56
2023-06-11T04:13:06.613Z,19.70
2023-06-11T04:14:06.617Z,19.79
2023-06-11T04:15:06.623Z,19.92
2023-06-11T04:16:07.419Z,20.02
2023-06-11T04:17:07.593Z,20.16
2023-06-11T04:18:06.640Z,20.22
2023-06-11T04:19:06.566Z,20.31
2023-06-11T04:20:06.587Z,20.62
2023-06-11T04:21:06.547Z,20.82
2023-06-11T04:22:06.547Z,20.78
2023-06-11T04:23:06.532Z,20.90
2023-06-11T04:24:09.256Z,21.03
2023-06-11T04:25:07.552Z,21.05
2023-06-11T04:26:06.510Z,21.02
2023-06-11T04:27:06.503Z,21.17
2023-06-11T04:28:06.499Z,21.29
2023-06-11T04:29:06.511Z,21.46
2023-06-11T04:30:06.490Z,21.69
2023-06-11T04:31:06.483Z,21.79
2023-06-11T04:32:06.461Z,21.99
2023-06-11T04:33:06.488Z,22.06
2023-06-11T04:34:06.468Z,22.20
2023-06-11T04:35:06.441Z,22.17
2023-06-11T04:36:06.424Z,22.25
2023-06-11T04:37:06.421Z,22.43
2023-06-11T04:38:06.443Z,22.47
2023-06-11T04:39:06.428Z,22.53
2023-06-11T04:40:06.401Z,22.39
2023-06-11T04:41:06.413Z,22.25
2023-06-11T04:42:06.392Z,22.32
2023-06-11T04:43:06.398Z,22.17
2023-06-11T04:44:06.396Z,22.28
2023-06-11T04:45:06.356Z,22.32
2023-06-11T04:46:06.416Z,22.33
2023-06-11T04:47:06.436Z,22.60
2023-06-11T04:48:38.274Z,22.84
2023-06-11T04:49:06.329Z,23.02
2023-06-11T04:50:06.356Z,22.93
2023-06-11T04:51:06.313Z,23.28
2023-06-11T04:52:06.319Z,23.51
2023-06-11T04:53:06.339Z,23.39
2023-06-11T04:54:06.300Z,23.65
2023-06-11T04:55:06.294Z,23.81
2023-06-11T04:56:06.320Z,23.80
2023-06-11T04:57:06.278Z,23.84
2023-06-11T04:58:06.293Z,23.83
2023-06-11T04:59:06.268Z,23.93
2023-06-11T05:00:06.260Z,24.14
2023-06-11T05:01:06.263Z,24.14
2023-06-11T05:02:06.283Z,24.42
2023-06-11T05:03:06.284Z,24.42
2023-06-11T05:04:06.251Z,24.55
2023-06-11T05:05:06.237Z,24.66
2023-06-11T05:06:06.239Z,24.78
2023-06-11T05:07:06.253Z,24.96
2023-06-11T05:08:06.281Z,25.01
2023-06-11T05:09:06.214Z,25.18
2023-06-11T05:10:06.193Z,25.44
2023-06-11T05:11:06.184Z,25.46
2023-06-11T05:12:06.200Z,25.44
2023-06-11T05:13:06.177Z,25.29
2023-06-11T05:14:06.169Z,25.50
2023-06-11T05:15:06.167Z,25.81
2023-06-11T05:16:06.170Z,26.06
2023-06-11T05:17:06.185Z,26.22
2023-06-11T05:18:06.196Z,26.37
2023-06-11T05:19:06.132Z,26.45
2023-06-11T05:20:06.126Z,26.55
2023-06-11T05:21:06.171Z,26.47
2023-06-11T05:22:06.107Z,26.73
2023-06-11T05:23:06.099Z,26.63
2023-06-11T05:24:06.126Z,26.68
2023-06-11T05:25:06.093Z,26.60
2023-06-11T05:26:06.095Z,26.58
2023-06-11T05:27:07.071Z,26.68
2023-06-11T05:28:06.064Z,26.99
2023-06-11T05:29:06.057Z,26.99
2023-06-11T05:30:06.089Z,27.11
2023-06-11T05:31:06.064Z,27.26
2023-06-11T05:32:06.058Z,27.20
2023-06-11T05:33:06.053Z,27.22
2023-06-11T05:34:06.022Z,27.29
2023-06-11T05:35:06.064Z,27.54
2023-06-11T05:36:06.007Z,27.58
2023-06-11T05:37:06.008Z,27.75
2023-06-11T05:38:05.992Z,27.52
2023-06-11T05:39:05.991Z,27.65
2023-06-11T05:40:06.005Z,27.55
2023-06-11T05:41:05.969Z,27.93
2023-06-11T05:42:05.962Z,27.75
2023-06-11T05:43:05.975Z,27.85
2023-06-11T05:44:05.959Z,27.93
2023-06-11T05:45:05.966Z,28.14
2023-06-11T05:46:05.994Z,28.15
2023-06-11T05:47:05.970Z,28.23
2023-06-11T05:48:05.961Z,28.35
2023-06-11T05:49:05.941Z,28.45
2023-06-11T05:50:05.948Z,28.86
2023-06-11T05:51:05.918Z,28.26
2023-06-11T05:52:05.897Z,28.48
2023-06-11T05:53:05.889Z,28.89
2023-06-11T05:54:05.907Z,29.17
2023-06-11T05:55:05.875Z,29.19
2023-06-11T05:56:05.873Z,29.35
2023-06-11T05:57:05.861Z,29.01
2023-06-11T05:58:05.856Z,28.89
2023-06-11T05:59:05.880Z,28.93
2023-06-11T06:00:05.912Z,28.89
2023-06-11T06:01:05.837Z,28.97
2023-06-11T06:02:05.886Z,29.02
2023-06-11T06:03:06.058Z,29.38
2023-06-11T06:04:05.994Z,29.78
2023-06-11T06:05:05.826Z,29.95
2023-06-11T06:06:05.810Z,29.81
2023-06-11T06:07:05.800Z,30.02
2023-06-11T06:08:05.812Z,29.75
2023-06-11T06:09:05.819Z,29.84
2023-06-11T06:10:05.788Z,29.95
2023-06-11T06:11:05.776Z,29.95
2023-06-11T06:12:05.767Z,30.40
2023-06-11T06:13:05.790Z,30.44
2023-06-11T06:14:05.754Z,30.37
2023-06-11T06:15:05.749Z,30.50
2023-06-11T06:16:05.753Z,30.84
2023-06-11T06:17:05.744Z,31.12
2023-06-11T06:18:05.875Z,31.29
2023-06-11T06:19:05.721Z,31.76
2023-06-11T06:20:05.717Z,31.73
2023-06-11T06:21:05.712Z,32.09
2023-06-11T06:22:05.703Z,31.58
2023-06-11T06:23:05.733Z,30.88
2023-06-11T06:24:05.734Z,30.24
2023-06-11T06:25:05.690Z,29.79
2023-06-11T06:26:05.681Z,29.71
2023-06-11T06:27:05.729Z,29.38
2023-06-11T06:28:05.695Z,29.14
2023-06-11T06:29:05.664Z,29.05
2023-06-11T06:30:05.660Z,29.01
2023-06-11T06:31:05.651Z,28.45
2023-06-11T06:32:05.707Z,28.05
2023-06-11T06:33:05.668Z,27.73
2023-06-11T06:34:05.640Z,27.64
2023-06-11T06:35:05.633Z,27.20
2023-06-11T06:36:05.630Z,27.11
2023-06-11T06:37:05.662Z,27.11
2023-06-11T06:38:05.619Z,27.17
2023-06-11T06:39:05.613Z,26.93
2023-06-11T06:40:05.623Z,26.80
2023-06-11T06:41:05.619Z,26.89
2023-06-11T06:42:05.618Z,27.07
2023-06-11T06:43:05.599Z,27.73
2023-06-11T06:44:05.613Z,27.47
2023-06-11T06:45:05.570Z,27.51
2023-06-11T06:46:05.601Z,27.25
2023-06-11T06:47:05.562Z,27.52
2023-06-11T06:48:05.601Z,27.58
2023-06-11T06:49:05.603Z,27.54
2023-06-11T06:50:05.556Z,27.40
2023-06-11T06:51:05.559Z,27.58
2023-06-11T06:52:05.528Z,27.45
2023-06-11T06:53:05.538Z,27.48
2023-06-11T06:54:05.519Z,27.27
2023-06-11T06:55:05.509Z,27.25
2023-06-11T06:56:05.528Z,27.39
2023-06-11T06:57:05.505Z,27.45
2023-06-11T06:58:05.495Z,27.86
2023-06-11T06:59:05.483Z,27.80
2023-06-11T07:00:05.521Z,27.65
2023-06-11T07:01:05.529Z,27.48
2023-06-11T07:02:08.717Z,27.54
2023-06-11T07:03:05.513Z,27.54
2023-06-11T07:04:05.458Z,27.27
2023-06-11T07:05:05.502Z,27.40
2023-06-11T07:06:05.509Z,27.82
2023-06-11T07:07:05.444Z,28.30
2023-06-11T07:08:05.430Z,28.66
2023-06-11T07:09:05.427Z,28.08
2023-06-11T07:10:05.444Z,27.86
2023-06-11T07:11:05.414Z,27.78
2023-06-11T07:12:05.398Z,27.30
2023-06-11T07:13:05.403Z,26.95
2023-06-11T07:14:05.418Z,26.63
2023-06-11T07:15:05.423Z,26.88
2023-06-11T07:16:05.402Z,26.84
2023-06-11T07:17:05.385Z,26.95
2023-06-11T07:18:05.426Z,26.96
2023-06-11T07:19:05.402Z,27.08
2023-06-11T07:20:05.393Z,27.27
2023-06-11T07:21:05.363Z,27.64
2023-06-11T07:22:05.342Z,27.83
2023-06-11T07:23:05.341Z,28.02
2023-06-11T07:24:05.386Z,28.00
2023-06-11T07:25:05.337Z,27.67
2023-06-11T07:26:05.323Z,27.47
2023-06-11T07:27:05.310Z,27.48
2023-06-11T07:28:05.349Z,27.82
2023-06-11T07:29:05.308Z,27.71
2023-06-11T07:30:06.292Z,27.40
2023-06-11T07:31:05.366Z,27.37
2023-06-11T07:32:05.276Z,27.29
2023-06-11T07:33:05.362Z,27.05
2023-06-11T07:34:05.258Z,27.07
2023-06-11T07:35:05.254Z,27.32
2023-06-11T07:36:05.242Z,27.21
2023-06-11T07:37:05.235Z,27.44
2023-06-11T07:38:05.252Z,27.85
2023-06-11T07:39:05.223Z,27.51
2023-06-11T07:40:05.218Z,27.37
2023-06-11T07:41:05.212Z,27.25
2023-06-11T07:42:05.232Z,27.29
2023-06-11T07:43:05.246Z,27.49
2023-06-11T07:44:05.192Z,27.52
2023-06-11T07:45:05.183Z,27.37
2023-06-11T07:46:05.217Z,27.25
2023-06-11T07:47:05.252Z,27.42
2023-06-11T07:48:05.240Z,27.86
2023-06-11T07:49:05.157Z,27.80
2023-06-11T07:50:05.165Z,27.49
2023-06-11T07:51:05.149Z,27.85
2023-06-11T07:52:05.169Z,28.12
2023-06-11T07:53:05.135Z,28.04
2023-06-11T07:54:05.134Z,27.68
2023-06-11T07:55:05.126Z,27.55
2023-06-11T07:56:05.145Z,27.80
2023-06-11T07:57:05.135Z,27.39
2023-06-11T07:58:05.098Z,27.45
2023-06-11T07:59:05.092Z,27.29
2023-06-11T08:00:05.085Z,27.21
2023-06-11T08:01:05.108Z,27.18
2023-06-11T08:02:05.105Z,27.42
2023-06-11T08:03:05.166Z,27.58
2023-06-11T08:04:05.067Z,27.54
2023-06-11T08:05:05.048Z,27.45
2023-06-11T08:06:05.088Z,27.55
2023-06-11T08:07:05.035Z,27.67
2023-06-11T08:08:05.023Z,27.55
2023-06-11T08:09:05.019Z,27.44
2023-06-11T08:10:05.055Z,27.52
2023-06-11T08:11:05.037Z,27.85
2023-06-11T08:12:05.995Z,27.73
2023-06-11T08:13:04.990Z,28.00
2023-06-11T08:14:04.985Z,28.26
2023-06-11T08:15:05.012Z,28.25
2023-06-11T08:16:04.983Z,28.41
2023-06-11T08:17:05.012Z,28.47
2023-06-11T08:18:04.978Z,28.33
2023-06-11T08:19:04.952Z,28.26
2023-06-11T08:20:04.968Z,27.98
2023-06-11T08:21:04.940Z,28.12
2023-06-11T08:22:04.929Z,28.08
2023-06-11T08:23:04.938Z,28.26
2023-06-11T08:24:05.021Z,28.37
2023-06-11T08:25:04.947Z,28.38
2023-06-11T08:26:04.921Z,28.45
2023-06-11T08:27:04.899Z,28.69
2023-06-11T08:28:04.887Z,28.79
2023-06-11T08:29:04.907Z,28.96
2023-06-11T08:30:04.871Z,28.96
2023-06-11T08:31:04.869Z,29.14
2023-06-11T08:32:04.882Z,29.41
2023-06-11T08:33:04.878Z,29.72
2023-06-11T08:34:04.868Z,29.88
2023-06-11T08:35:04.837Z,29.65
2023-06-11T08:36:04.848Z,29.60
2023-06-11T08:37:04.823Z,29.57
2023-06-11T08:38:04.815Z,29.84
2023-06-11T08:39:04.842Z,30.13
2023-06-11T08:40:04.803Z,30.09
2023-06-11T08:41:04.799Z,30.02
2023-06-11T08:42:04.797Z,29.60
2023-06-11T08:43:04.813Z,28.70
2023-06-11T08:44:04.805Z,28.69
2023-06-11T08:45:04.768Z,28.63
2023-06-11T08:46:04.806Z,28.98
2023-06-11T08:47:04.759Z,28.96
2023-06-11T08:48:04.853Z,28.84
2023-06-11T08:49:04.766Z,28.91
2023-06-11T08:50:04.745Z,29.08
2023-06-11T08:51:04.731Z,29.47
2023-06-11T08:52:04.734Z,29.93
2023-06-11T08:53:04.745Z,30.12
2023-06-11T08:54:04.707Z,29.94
2023-06-11T08:55:04.703Z,29.97
2023-06-11T08:56:04.697Z,29.97
2023-06-11T08:57:04.690Z,30.21
2023-06-11T08:58:04.701Z,30.19
2023-06-11T08:59:04.671Z,29.32
2023-06-11T09:00:04.666Z,29.01
2023-06-11T09:01:04.659Z,28.79
2023-06-11T09:02:04.757Z,28.67
2023-06-11T09:03:04.738Z,28.39
2023-06-11T09:04:04.648Z,28.39
2023-06-11T09:05:04.628Z,28.85
2023-06-11T09:06:04.618Z,29.17
2023-06-11T09:07:04.953Z,29.23
2023-06-11T09:08:04.651Z,29.32
2023-06-11T09:09:04.601Z,29.24
2023-06-11T09:10:04.623Z,29.42
2023-06-11T09:11:04.591Z,29.27
2023-06-11T09:12:04.623Z,28.85
2023-06-11T09:13:04.578Z,28.66
2023-06-11T09:14:04.574Z,28.51
2023-06-11T09:15:04.594Z,28.69
2023-06-11T09:16:04.575Z,28.47
2023-06-11T09:17:04.574Z,28.52
2023-06-11T09:18:05.381Z,28.54
2023-06-11T09:19:04.534Z,28.26
2023-06-11T09:20:04.519Z,28.27
2023-06-11T09:21:04.579Z,28.29
2023-06-11T09:22:04.538Z,28.20
2023-06-11T09:23:04.514Z,28.07
2023-06-11T09:24:04.520Z,28.14
2023-06-11T09:25:04.488Z,28.10
2023-06-11T09:26:04.518Z,28.04
2023-06-11T09:27:04.479Z,28.08
2023-06-11T09:28:04.472Z,28.12
2023-06-11T09:29:04.463Z,28.02
2023-06-11T09:30:04.460Z,27.96
2023-06-11T09:31:04.480Z,27.86
2023-06-11T09:32:09.968Z,27.52
2023-06-11T09:33:05.486Z,27.60
2023-06-11T09:34:04.424Z,27.70
2023-06-11T09:35:04.443Z,27.68
2023-06-11T09:36:04.447Z,27.67
2023-06-11T09:37:04.403Z,27.47
2023-06-11T09:38:04.397Z,27.47
2023-06-11T09:39:04.384Z,27.37
2023-06-11T09:40:04.411Z,27.17
2023-06-11T09:41:04.371Z,27.26
2023-06-11T09:42:04.367Z,27.32
2023-06-11T09:43:04.366Z,27.39
2023-06-11T09:44:04.363Z,27.47
2023-06-11T09:45:04.368Z,27.25
2023-06-11T09:46:04.397Z,27.33
2023-06-11T09:47:04.328Z,27.44
2023-06-11T09:48:04.337Z,27.25
2023-06-11T09:49:04.340Z,27.27
2023-06-11T09:50:04.341Z,27.05
2023-06-11T09:51:04.291Z,26.97
2023-06-11T09:52:04.291Z,26.95
2023-06-11T09:53:04.277Z,26.99
2023-06-11T09:54:04.308Z,26.95
2023-06-11T09:55:04.284Z,27.03
2023-06-11T09:56:10.964Z,27.17
2023-06-11T09:57:06.269Z,27.21
2023-06-11T09:58:04.254Z,27.22
2023-06-11T09:59:04.275Z,27.30
2023-06-11T10:00:04.245Z,27.36
2023-06-11T10:01:07.211Z,27.21
2023-06-11T10:02:05.222Z,27.25
2023-06-11T10:03:04.321Z,27.44
2023-06-11T10:04:04.280Z,27.27
2023-06-11T10:05:04.208Z,27.27
2023-06-11T10:06:04.193Z,27.26
2023-06-11T10:07:04.191Z,27.25
2023-06-11T10:08:04.229Z,27.12
2023-06-11T10:09:04.174Z,27.14
2023-06-11T10:10:04.165Z,27.14
2023-06-11T10:11:04.187Z,27.15
2023-06-11T10:12:04.149Z,27.18
2023-06-11T10:13:04.180Z,27.15
2023-06-11T10:14:04.138Z,27.21
2023-06-11T10:15:04.128Z,27.27
2023-06-11T10:16:04.249Z,27.27
2023-06-11T10:17:04.117Z,27.22
2023-06-11T10:18:04.183Z,27.32
2023-06-11T10:19:04.108Z,27.25
2023-06-11T10:20:04.094Z,27.37
2023-06-11T10:21:04.088Z,27.39
2023-06-11T10:22:04.083Z,27.45
2023-06-11T10:23:06.332Z,27.36
2023-06-11T10:24:05.119Z,27.27
2023-06-11T10:25:04.064Z,27.22
2023-06-11T10:26:04.041Z,27.27
2023-06-11T10:27:04.092Z,27.39
2023-06-11T10:28:04.059Z,27.47
2023-06-11T10:29:06.345Z,27.47
2023-06-11T10:30:04.012Z,27.44
2023-06-11T10:31:04.016Z,27.58
2023-06-11T10:32:04.015Z,27.58
2023-06-11T10:33:04.160Z,27.52
2023-06-11T10:34:04.118Z,27.93
2023-06-11T10:35:04.141Z,27.73
2023-06-11T10:36:03.970Z,27.59
2023-06-11T10:37:03.983Z,27.58
2023-06-11T10:38:03.955Z,27.52
2023-06-11T10:39:03.942Z,27.59
2023-06-11T10:40:03.930Z,27.64
2023-06-11T10:41:03.999Z,27.49
2023-06-11T10:42:03.975Z,27.48
2023-06-11T10:43:03.904Z,27.68
2023-06-11T10:44:03.899Z,27.86
2023-06-11T10:45:03.880Z,27.96
2023-06-11T10:46:04.910Z,27.77
2023-06-11T10:47:04.087Z,27.45
2023-06-11T10:48:36.271Z,27.21
2023-06-11T10:49:03.861Z,27.33
2023-06-11T10:50:03.857Z,27.22
2023-06-11T10:51:03.892Z,27.32
2023-06-11T10:52:03.867Z,27.35
2023-06-11T10:53:03.891Z,27.47
2023-06-11T10:54:03.840Z,27.52
2023-06-11T10:55:03.826Z,27.51
2023-06-11T10:56:03.854Z,27.63
2023-06-11T10:57:03.838Z,27.49
2023-06-11T10:58:03.807Z,27.40
2023-06-11T10:59:03.791Z,27.35
2023-06-11T11:00:03.805Z,27.29
2023-06-11T11:01:03.801Z,27.22
2023-06-11T11:02:03.791Z,27.29
2023-06-11T11:03:03.817Z,27.54
2023-06-11T11:04:03.867Z,27.39
2023-06-11T11:05:03.770Z,27.30
2023-06-11T11:06:03.760Z,27.27
2023-06-11T11:07:03.721Z,27.27
2023-06-11T11:08:03.719Z,27.42
2023-06-11T11:09:03.712Z,27.39
2023-06-11T11:10:03.738Z,27.26
2023-06-11T11:11:03.712Z,27.25
2023-06-11T11:12:03.698Z,27.20
2023-06-11T11:13:03.685Z,27.33
2023-06-11T11:14:03.675Z,27.39
2023-06-11T11:15:03.690Z,27.40
2023-06-11T11:16:03.759Z,27.32
2023-06-11T11:17:03.705Z,27.37
2023-06-11T11:18:03.728Z,27.39
2023-06-11T11:19:03.633Z,27.37
2023-06-11T11:20:03.660Z,27.39
2023-06-11T11:21:03.624Z,27.39
2023-06-11T11:22:03.619Z,27.37
2023-06-11T11:23:03.608Z,27.25
2023-06-11T11:24:03.702Z,27.20
2023-06-11T11:25:03.612Z,27.36
2023-06-11T11:26:03.589Z,27.49
2023-06-11T11:27:03.582Z,27.71
2023-06-11T11:28:03.573Z,27.63
2023-06-11T11:29:03.577Z,27.71
2023-06-11T11:30:04.155Z,27.54
2023-06-11T11:31:04.543Z,27.67
2023-06-11T11:32:03.582Z,27.82
2023-06-11T11:33:03.647Z,27.83
2023-06-11T11:34:03.539Z,27.71
2023-06-11T11:35:03.516Z,27.40
2023-06-11T11:36:03.499Z,27.52
2023-06-11T11:37:03.497Z,27.42
2023-06-11T11:38:03.494Z,27.71
2023-06-11T11:39:03.506Z,27.71
2023-06-11T11:40:03.475Z,27.68
2023-06-11T11:41:03.474Z,27.49
2023-06-11T11:42:03.473Z,27.26
2023-06-11T11:43:03.488Z,27.40
2023-06-11T11:44:03.478Z,27.37
2023-06-11T11:45:03.432Z,27.47
2023-06-11T11:46:03.465Z,27.64
2023-06-11T11:47:03.435Z,27.60
2023-06-11T11:48:05.696Z,27.52
2023-06-11T11:49:04.412Z,27.35
2023-06-11T11:50:03.402Z,27.39
2023-06-11T11:51:03.395Z,27.47
2023-06-11T11:52:03.390Z,27.35
2023-06-11T11:53:03.401Z,27.20
2023-06-11T11:54:03.907Z,27.33
2023-06-11T11:55:04.358Z,27.65
2023-06-11T11:56:06.451Z,27.70
2023-06-11T11:57:04.371Z,27.77
2023-06-11T11:58:03.373Z,27.82
2023-06-11T11:59:03.325Z,27.87
2023-06-11T12:00:03.314Z,27.47
2023-06-11T12:01:03.315Z,27.44
2023-06-11T12:02:03.331Z,27.37
2023-06-11T12:03:03.401Z,27.44
2023-06-11T12:04:03.345Z,27.74
2023-06-11T12:05:03.280Z,27.73
2023-06-11T12:06:03.380Z,27.51
2023-06-11T12:07:03.338Z,27.32
2023-06-11T12:08:03.252Z,27.35
2023-06-11T12:09:03.253Z,27.39
2023-06-11T12:10:04.038Z,27.58
2023-06-11T12:11:04.255Z,27.75
2023-06-11T12:12:06.121Z,27.95
2023-06-11T12:13:04.206Z,27.78
2023-06-11T12:14:03.194Z,27.86
2023-06-11T12:15:03.208Z,27.83
2023-06-11T12:16:04.900Z,27.73
2023-06-11T12:17:04.412Z,27.55
2023-06-11T12:18:03.194Z,27.80
2023-06-11T12:19:18.712Z,27.92
2023-06-11T12:20:05.154Z,27.87
2023-06-11T12:21:03.164Z,28.05
2023-06-11T12:22:03.136Z,28.05
2023-06-11T12:23:03.132Z,28.12
2023-06-11T12:24:03.179Z,28.04
2023-06-11T12:25:03.182Z,28.12
2023-06-11T12:26:03.166Z,28.14
2023-06-11T12:27:06.482Z,28.07
2023-06-11T12:28:05.097Z,27.80
2023-06-11T12:29:03.087Z,27.80
2023-06-11T12:30:03.107Z,27.68
2023-06-11T12:31:03.064Z,27.63
2023-06-11T12:32:03.161Z,27.71
2023-06-11T12:33:03.082Z,27.77
2023-06-11T12:34:03.082Z,27.85
2023-06-11T12:35:03.092Z,28.04
2023-06-11T12:36:03.021Z,28.02
2023-06-11T12:37:03.013Z,27.90
2023-06-11T12:38:03.019Z,27.71
2023-06-11T12:39:03.032Z,27.64
2023-06-11T12:40:03.020Z,27.55
2023-06-11T12:41:02.989Z,27.67
2023-06-11T12:42:02.977Z,27.68
2023-06-11T12:43:02.970Z,27.70
2023-06-11T12:44:03.043Z,27.73
2023-06-11T12:45:04.466Z,27.59
2023-06-11T12:46:03.012Z,27.67
2023-06-11T12:47:02.941Z,27.68
2023-06-11T12:48:02.948Z,27.65
2023-06-11T12:49:02.946Z,27.60
2023-06-11T12:50:02.909Z,27.48
2023-06-11T12:51:02.906Z,27.45
2023-06-11T12:52:02.893Z,27.74